createdAt,value
2022-08-11T00:01:31.968Z,15.20
2022-08-11T00:06:38.992Z,15.10
2022-08-11T00:11:50.012Z,15.00
2022-08-11T00:16:58.401Z,14.80
2022-08-11T00:22:06.343Z,14.80
2022-08-11T00:27:14.239Z,14.70
2022-08-11T00:32:20.172Z,14.60
2022-08-11T00:37:26.480Z,14.50
2022-08-11T00:42:57.192Z,14.40
2022-08-11T00:48:14.131Z,14.40
2022-08-11T00:53:49.522Z,14.30
2022-08-11T00:59:35.284Z,14.20
2022-08-11T01:04:55.779Z,14.10
2022-08-11T01:10:11.403Z,14.00
2022-08-11T01:15:34.329Z,13.90
2022-08-11T01:21:14.320Z,13.90
2022-08-11T01:26:31.266Z,13.90
2022-08-11T01:32:03.659Z,13.80
2022-08-11T01:37:32.819Z,13.70
2022-08-11T01:42:58.591Z,13.60
2022-08-11T01:48:38.200Z,13.50
2022-08-11T01:54:07.404Z,13.50
2022-08-11T01:59:18.801Z,13.50
2022-08-11T02:04:36.423Z,13.40
2022-08-11T02:09:56.604Z,13.40
2022-08-11T02:15:26.158Z,13.40
2022-08-11T02:21:11.797Z,13.30
2022-08-11T02:26:26.155Z,13.30
2022-08-11T02:32:14.213Z,13.20
2022-08-11T02:37:27.612Z,13.20
2022-08-11T02:42:36.429Z,13.10
2022-08-11T02:47:52.019Z,13.00
2022-08-11T02:53:20.845Z,13.00
2022-08-11T02:58:40.850Z,13.00
2022-08-11T03:03:52.852Z,12.90
2022-08-11T03:09:07.192Z,12.80
2022-08-11T03:14:33.225Z,12.80
2022-08-11T03:19:44.449Z,12.80
2022-08-11T03:24:59.266Z,12.80
2022-08-11T03:30:19.414Z,12.80
2022-08-11T03:35:26.183Z,12.80
2022-08-11T03:40:52.035Z,12.80
2022-08-11T03:46:09.398Z,12.70
2022-08-11T03:51:26.421Z,12.70
2022-08-11T03:56:52.649Z,12.70
2022-08-11T04:02:35.426Z,12.70
2022-08-11T04:07:49.563Z,12.60
2022-08-11T04:13:29.242Z,12.60
2022-08-11T04:18:54.227Z,12.70
2022-08-11T04:24:35.873Z,12.80
2022-08-11T04:29:35.883Z,12.90
2022-08-11T04:34:53.815Z,13.00
2022-08-11T04:40:21.384Z,13.10
2022-08-11T04:45:46.243Z,13.30
2022-08-11T04:51:28.864Z,13.60
2022-08-11T04:56:53.964Z,13.90
2022-08-11T05:02:02.399Z,14.20
2022-08-11T05:07:34.819Z,14.50
2022-08-11T05:12:55.034Z,14.70
2022-08-11T05:18:23.718Z,15.00
2022-08-11T05:23:34.193Z,15.20
2022-08-11T05:29:08.284Z,15.50
2022-08-11T05:34:30.974Z,15.70
2022-08-11T05:40:05.726Z,15.90
2022-08-11T05:45:58.671Z,16.20
2022-08-11T05:51:00.408Z,16.50
2022-08-11T05:56:22.258Z,16.70
2022-08-11T06:01:33.229Z,17.10
2022-08-11T06:06:45.533Z,17.30
2022-08-11T06:11:50.213Z,17.60
2022-08-11T06:16:59.564Z,17.80
2022-08-11T06:22:07.500Z,18.10
2022-08-11T06:27:14.529Z,18.40
2022-08-11T06:32:21.129Z,18.70
2022-08-11T06:37:59.022Z,18.90
2022-08-11T06:43:22.973Z,19.20
2022-08-11T06:48:28.886Z,19.50
2022-08-11T06:53:35.188Z,19.80
2022-08-11T06:59:00.140Z,20.10
2022-08-11T07:04:10.157Z,20.40
2022-08-11T07:09:42.221Z,20.90
2022-08-11T07:15:13.223Z,21.20
2022-08-11T07:20:37.393Z,21.60
2022-08-11T07:26:03.399Z,22.00
2022-08-11T07:31:29.568Z,22.20
2022-08-11T07:36:38.700Z,22.70
2022-08-11T07:41:45.611Z,23.20
2022-08-11T07:47:11.250Z,23.50
2022-08-11T07:52:32.835Z,23.90
2022-08-11T07:58:15.757Z,24.20
2022-08-11T08:03:23.637Z,24.50
2022-08-11T08:08:47.222Z,24.30
2022-08-11T08:14:12.042Z,24.20
2022-08-11T08:19:20.570Z,24.50
2022-08-11T08:24:26.857Z,25.30
2022-08-11T08:29:55.994Z,26.10
2022-08-11T08:35:02.927Z,26.60
2022-08-11T08:40:10.002Z,27.10
2022-08-11T08:45:18.884Z,27.80
2022-08-11T08:50:29.849Z,27.70
2022-08-11T08:55:35.937Z,28.40
2022-08-11T09:00:47.002Z,28.60
2022-08-11T09:05:55.367Z,29.10
2022-08-11T09:11:19.258Z,29.30
2022-08-11T09:16:26.097Z,29.50
2022-08-11T09:21:48.537Z,29.80
2022-08-11T09:26:59.070Z,30.10
2022-08-11T09:32:06.330Z,30.30
2022-08-11T09:37:55.660Z,30.40
2022-08-11T09:42:55.970Z,30.50
2022-08-11T09:48:03.592Z,29.00
2022-08-11T09:53:36.511Z,28.80
2022-08-11T09:58:42.919Z,29.90
2022-08-11T10:03:27.870Z,30.50
2022-08-11T10:08:35.423Z,31.40
2022-08-11T10:14:30.947Z,32.00
2022-08-11T10:19:10.507Z,31.30
2022-08-11T10:24:34.101Z,31.70
2022-08-11T10:29:59.724Z,32.20
2022-08-11T10:35:07.752Z,32.10
2022-08-11T10:40:18.704Z,32.20
2022-08-11T10:45:43.483Z,31.80
2022-08-11T10:51:07.832Z,30.20
2022-08-11T10:56:30.898Z,30.90
2022-08-11T11:01:44.229Z,31.30
2022-08-11T11:07:07.477Z,31.90
2022-08-11T11:12:51.444Z,31.30
2022-08-11T11:18:04.444Z,31.80
2022-08-11T11:23:12.987Z,32.10
2022-08-11T11:28:24.307Z,32.50
2022-08-11T11:33:32.703Z,31.00
2022-08-11T11:38:41.692Z,30.90
2022-08-11T11:43:47.345Z,32.30
2022-08-11T11:48:54.539Z,32.70
2022-08-11T11:54:02.703Z,32.30
2022-08-11T11:59:26.043Z,31.40
2022-08-11T12:04:31.595Z,30.60
2022-08-11T12:09:37.693Z,30.50
2022-08-11T12:14:43.236Z,30.60
2022-08-11T12:19:50.082Z,30.90
2022-08-11T12:25:13.851Z,31.50
2022-08-11T12:30:20.943Z,31.30
2022-08-11T12:35:27.021Z,30.00
2022-08-11T12:41:15.055Z,29.20
2022-08-11T12:46:00.656Z,28.70
2022-08-11T12:51:26.785Z,28.90
2022-08-11T12:56:52.677Z,28.50
2022-08-11T13:02:16.025Z,28.60
2022-08-11T13:07:21.893Z,29.10
2022-08-11T13:12:45.937Z,29.90
2022-08-11T13:17:53.192Z,30.10
2022-08-11T13:23:00.770Z,30.00
2022-08-11T13:28:06.740Z,30.20
2022-08-11T13:33:13.169Z,30.20
2022-08-11T13:38:22.328Z,30.50
2022-08-11T13:43:29.009Z,30.40
2022-08-11T13:48:34.672Z,30.60
2022-08-11T13:53:40.517Z,30.50
2022-08-11T13:58:46.996Z,30.40
2022-08-11T14:04:30.733Z,30.40
2022-08-11T14:09:03.374Z,29.90
2022-08-11T14:14:12.069Z,29.80
2022-08-11T14:19:21.398Z,29.60
2022-08-11T14:24:28.087Z,28.80
2022-08-11T14:29:45.268Z,28.80
2022-08-11T14:34:45.107Z,29.10
2022-08-11T14:39:58.230Z,29.10
2022-08-11T14:45:25.571Z,29.10
2022-08-11T14:50:34.593Z,28.90
2022-08-11T14:56:02.913Z,29.20
2022-08-11T15:01:10.257Z,29.30
2022-08-11T15:06:15.735Z,29.40
2022-08-11T15:11:41.631Z,28.70
2022-08-11T15:17:05.772Z,28.00
2022-08-11T15:22:29.894Z,27.70
2022-08-11T15:27:53.511Z,27.40
2022-08-11T15:33:17.658Z,27.50
2022-08-11T15:38:24.650Z,27.70
2022-08-11T15:43:53.515Z,27.60
2022-08-11T15:49:21.896Z,27.70
2022-08-11T15:54:30.848Z,27.80
2022-08-11T15:59:56.300Z,27.70
2022-08-11T16:05:04.623Z,27.60
2022-08-11T16:10:24.228Z,27.50
2022-08-11T16:15:50.075Z,27.40
2022-08-11T16:20:58.310Z,27.30
2022-08-11T16:27:10.553Z,27.30
2022-08-11T16:31:13.863Z,27.20
2022-08-11T16:36:38.231Z,27.00
2022-08-11T16:42:02.749Z,27.00
2022-08-11T16:47:10.666Z,26.70
2022-08-11T16:52:17.146Z,26.60
2022-08-11T16:57:43.322Z,26.50
2022-08-11T17:03:11.341Z,26.40
2022-08-11T17:08:37.545Z,26.10
2022-08-11T17:13:51.752Z,25.90
2022-08-11T17:19:11.732Z,25.80
2022-08-11T17:24:18.186Z,25.60
2022-08-11T17:29:26.702Z,25.50
2022-08-11T17:34:50.606Z,25.30
2022-08-11T17:39:57.795Z,25.20
2022-08-11T17:45:23.214Z,24.90
2022-08-11T17:50:29.657Z,24.60
2022-08-11T17:55:57.848Z,24.30
2022-08-11T18:01:09.100Z,24.00
2022-08-11T18:06:13.757Z,23.70
2022-08-11T18:12:06.525Z,23.40
2022-08-11T18:17:06.368Z,23.20
2022-08-11T18:22:30.773Z,22.80
2022-08-11T18:27:55.319Z,22.60
2022-08-11T18:34:03.446Z,22.30
2022-08-11T18:38:47.659Z,22.00
2022-08-11T18:44:12.717Z,21.90
2022-08-11T18:50:04.031Z,21.70
2022-08-11T18:55:05.690Z,21.40
2022-08-11T19:00:31.192Z,21.20
2022-08-11T19:06:35.810Z,21.00
2022-08-11T19:11:21.753Z,20.80
2022-08-11T19:16:47.569Z,20.70
2022-08-11T19:22:12.137Z,20.50
2022-08-11T19:27:37.346Z,20.30
2022-08-11T19:33:01.009Z,20.20
2022-08-11T19:38:23.877Z,20.40
2022-08-11T19:43:49.361Z,20.50
2022-08-11T19:49:15.245Z,20.50
2022-08-11T19:54:38.895Z,20.40
2022-08-11T20:00:02.463Z,20.50
2022-08-11T20:05:26.733Z,20.40
2022-08-11T20:10:53.360Z,20.20
2022-08-11T20:16:18.534Z,20.10
2022-08-11T20:21:43.595Z,20.00
2022-08-11T20:27:18.589Z,19.90
2022-08-11T20:32:35.641Z,19.80
2022-08-11T20:38:00.244Z,19.70
2022-08-11T20:44:08.137Z,19.60
2022-08-11T20:48:53.616Z,19.50
2022-08-11T20:54:17.936Z,19.50
2022-08-11T20:59:52.809Z,19.40
2022-08-11T21:05:09.531Z,19.30
2022-08-11T21:10:34.710Z,19.10
2022-08-11T21:16:01.485Z,19.00
2022-08-11T21:21:26.723Z,18.80
2022-08-11T21:26:52.345Z,18.70
2022-08-11T21:32:17.593Z,18.60
2022-08-11T21:37:41.498Z,18.50
2022-08-11T21:43:09.393Z,18.40
2022-08-11T21:48:32.681Z,18.10
2022-08-11T21:53:56.235Z,18.20
2022-08-11T21:59:20.641Z,18.10
2022-08-11T22:04:44.446Z,18.00
2022-08-11T22:10:40.265Z,17.90
2022-08-11T22:15:32.657Z,17.80
2022-08-11T22:20:58.581Z,17.70
2022-08-11T22:26:22.761Z,17.60
2022-08-11T22:31:46.989Z,17.70
2022-08-11T22:37:10.457Z,17.80
2022-08-11T22:42:35.545Z,17.80
2022-08-11T22:48:00.324Z,17.80
2022-08-11T22:53:23.403Z,17.80
2022-08-11T22:58:46.814Z,17.60
2022-08-11T23:04:12.222Z,17.50
2022-08-11T23:09:37.796Z,17.40
2022-08-11T23:15:01.688Z,17.40
2022-08-11T23:20:27.677Z,17.30
2022-08-11T23:25:53.717Z,17.20
2022-08-11T23:31:17.465Z,17.10
2022-08-11T23:36:47.036Z,16.90
2022-08-11T23:42:05.248Z,16.80
2022-08-11T23:47:28.586Z,16.70
2022-08-11T23:52:54.024Z,16.70
2022-08-11T23:58:17.701Z,16.70
